sensor_id;sensor_type;location;lat;lon;timestamp;P1;durP1;ratioP1;P2;durP2;ratioP2
76098;SDS011;64828;49.956;8.636;2024-01-16T00:00:13;7.38;;;4.07;;
76098;SDS011;64828;49.956;8.636;2024-01-16T00:00:29;6.55;;;4.00;;
76098;SDS011;64828;49.956;8.636;2024-01-16T00:00:45;6.72;;;4.05;;
76098;SDS011;64828;49.956;8.636;2024-01-16T00:01:01;6.43;;;4.18;;
76098;SDS011;64828;49.956;8.636;2024-01-16T00:01:17;7.40;;;4.43;;
76098;SDS011;64828;49.956;8.636;2024-01-16T00:01:33;8.55;;;4.40;;
76098;SDS011;64828;49.956;8.636;2024-01-16T00:01:49;7.50;;;4.20;;
76098;SDS011;64828;49.956;8.636;2024-01-16T00:02:05;6.60;;;4.13;;
76098;SDS011;64828;49.956;8.636;2024-01-16T00:02:22;6.60;;;4.00;;
76098;SDS011;64828;49.956;8.636;2024-01-16T00:02:38;7.07;;;4.00;;
76098;SDS011;64828;49.956;8.636;2024-01-16T00:02:55;8.85;;;4.28;;
76098;SDS011;64828;49.956;8.636;2024-01-16T00:03:10;7.30;;;4.18;;
76098;SDS011;64828;49.956;8.636;2024-01-16T00:03:26;6.60;;;3.87;;
76098;SDS011;64828;49.956;8.636;2024-01-16T00:03:42;6.78;;;3.83;;
76098;SDS011;64828;49.956;8.636;2024-01-16T00:03:57;6.63;;;4.10;;
76098;SDS011;64828;49.956;8.636;2024-01-16T00:04:13;6.07;;;4.10;;
76098;SDS011;64828;49.956;8.636;2024-01-16T00:04:28;6.13;;;3.95;;
76098;SDS011;64828;49.956;8.636;2024-01-16T00:04:45;7.60;;;4.20;;
76098;SDS011;64828;49.956;8.636;2024-01-16T00:05:01;8.17;;;4.33;;
76098;SDS011;64828;49.956;8.636;2024-01-16T00:05:17;7.90;;;4.40;;
76098;SDS011;64828;49.956;8.636;2024-01-16T00:05:33;6.83;;;4.07;;
76098;SDS011;64828;49.956;8.636;2024-01-16T00:05:49;7.50;;;3.90;;
76098;SDS011;64828;49.956;8.636;2024-01-16T00:06:04;7.53;;;3.87;;
76098;SDS011;64828;49.956;8.636;2024-01-16T00:06:21;5.72;;;3.60;;
76098;SDS011;64828;49.956;8.636;2024-01-16T00:06:40;5.00;;;3.63;;
76098;SDS011;64828;49.956;8.636;2024-01-16T00:06:56;7.28;;;4.25;;
76098;SDS011;64828;49.956;8.636;2024-01-16T00:07:12;6.80;;;4.07;;
76098;SDS011;64828;49.956;8.636;2024-01-16T00:07:27;6.90;;;4.30;;
76098;SDS011;64828;49.956;8.636;2024-01-16T00:07:43;7.80;;;4.33;;
76098;SDS011;64828;49.956;8.636;2024-01-16T00:07:59;8.15;;;4.30;;
76098;SDS011;64828;49.956;8.636;2024-01-16T00:08:14;7.28;;;4.20;;
76098;SDS011;64828;49.956;8.636;2024-01-16T00:08:30;6.93;;;4.00;;
76098;SDS011;64828;49.956;8.636;2024-01-16T00:08:46;7.15;;;3.65;;
76098;SDS011;64828;49.956;8.636;2024-01-16T00:09:01;7.13;;;3.40;;
76098;SDS011;64828;49.956;8.636;2024-01-16T00:09:17;6.77;;;3.37;;
76098;SDS011;64828;49.956;8.636;2024-01-16T00:09:33;6.57;;;3.83;;
76098;SDS011;64828;49.956;8.636;2024-01-16T00:09:49;7.00;;;4.10;;
76098;SDS011;64828;49.956;8.636;2024-01-16T00:10:07;6.30;;;4.05;;
76098;SDS011;64828;49.956;8.636;2024-01-16T00:10:24;6.05;;;4.40;;
76098;SDS011;64828;49.956;8.636;2024-01-16T00:10:39;7.85;;;4.47;;
76098;SDS011;64828;49.956;8.636;2024-01-16T00:10:55;7.07;;;4.30;;
76098;SDS011;64828;49.956;8.636;2024-01-16T00:11:11;5.50;;;3.80;;
76098;SDS011;64828;49.956;8.636;2024-01-16T00:11:26;4.43;;;2.75;;
76098;SDS011;64828;49.956;8.636;2024-01-16T00:11:42;6.30;;;3.10;;
76098;SDS011;64828;49.956;8.636;2024-01-16T00:11:58;8.43;;;3.90;;
76098;SDS011;64828;49.956;8.636;2024-01-16T00:12:14;6.70;;;3.80;;
76098;SDS011;64828;49.956;8.636;2024-01-16T00:12:30;6.65;;;3.97;;
76098;SDS011;64828;49.956;8.636;2024-01-16T00:12:45;7.75;;;3.92;;
76098;SDS011;64828;49.956;8.636;2024-01-16T00:13:02;7.03;;;3.78;;
76098;SDS011;64828;49.956;8.636;2024-01-16T00:13:17;6.35;;;4.20;;
76098;SDS011;64828;49.956;8.636;2024-01-16T00:13:33;6.93;;;4.40;;
76098;SDS011;64828;49.956;8.636;2024-01-16T00:13:50;8.15;;;4.55;;
76098;SDS011;64828;49.956;8.636;2024-01-16T00:14:05;7.00;;;4.20;;
76098;SDS011;64828;49.956;8.636;2024-01-16T00:14:21;6.63;;;3.90;;
76098;SDS011;64828;49.956;8.636;2024-01-16T00:14:37;6.97;;;3.97;;
76098;SDS011;64828;49.956;8.636;2024-01-16T00:14:52;7.65;;;4.13;;
76098;SDS011;64828;49.956;8.636;2024-01-16T00:15:08;8.13;;;4.38;;
76098;SDS011;64828;49.956;8.636;2024-01-16T00:15:24;6.87;;;4.23;;
76098;SDS011;64828;49.956;8.636;2024-01-16T00:15:39;7.05;;;4.05;;
76098;SDS011;64828;49.956;8.636;2024-01-16T00:15:58;5.47;;;3.97;;
76098;SDS011;64828;49.956;8.636;2024-01-16T00:16:14;5.68;;;4.22;;
76098;SDS011;64828;49.956;8.636;2024-01-16T00:16:29;7.80;;;4.45;;
76098;SDS011;64828;49.956;8.636;2024-01-16T00:16:45;6.70;;;4.13;;
76098;SDS011;64828;49.956;8.636;2024-01-16T00:17:02;5.88;;;4.07;;
76098;SDS011;64828;49.956;8.636;2024-01-16T00:17:18;7.70;;;4.28;;
76098;SDS011;64828;49.956;8.636;2024-01-16T00:17:34;7.80;;;4.30;;
76098;SDS011;64828;49.956;8.636;2024-01-16T00:17:50;7.55;;;4.15;;
76098;SDS011;64828;49.956;8.636;2024-01-16T00:18:06;7.38;;;4.22;;
76098;SDS011;64828;49.956;8.636;2024-01-16T00:18:23;9.07;;;4.70;;
76098;SDS011;64828;49.956;8.636;2024-01-16T00:18:38;9.38;;;4.60;;
76098;SDS011;64828;49.956;8.636;2024-01-16T00:18:54;8.93;;;4.47;;
76098;SDS011;64828;49.956;8.636;2024-01-16T00:19:10;7.57;;;4.20;;
76098;SDS011;64828;49.956;8.636;2024-01-16T00:19:27;7.25;;;4.20;;
76098;SDS011;64828;49.956;8.636;2024-01-16T00:19:42;8.45;;;4.45;;
76098;SDS011;64828;49.956;8.636;2024-01-16T00:19:58;7.20;;;4.27;;
76098;SDS011;64828;49.956;8.636;2024-01-16T00:20:16;7.30;;;4.00;;
76098;SDS011;64828;49.956;8.636;2024-01-16T00:20:32;7.33;;;3.97;;
76098;SDS011;64828;49.956;8.636;2024-01-16T00:20:48;6.70;;;3.97;;
76098;SDS011;64828;49.956;8.636;2024-01-16T00:21:04;6.77;;;4.10;;
76098;SDS011;64828;49.956;8.636;2024-01-16T00:21:20;6.90;;;4.38;;
76098;SDS011;64828;49.956;8.636;2024-01-16T00:21:41;8.20;;;4.20;;
76098;SDS011;64828;49.956;8.636;2024-01-16T00:22:00;7.05;;;3.88;;
76098;SDS011;64828;49.956;8.636;2024-01-16T00:22:17;7.15;;;3.97;;
76098;SDS011;64828;49.956;8.636;2024-01-16T00:22:33;6.50;;;4.32;;
76098;SDS011;64828;49.956;8.636;2024-01-16T00:22:49;6.83;;;4.30;;
76098;SDS011;64828;49.956;8.636;2024-01-16T00:23:04;9.15;;;4.45;;
76098;SDS011;64828;49.956;8.636;2024-01-16T00:23:20;9.93;;;4.53;;
76098;SDS011;64828;49.956;8.636;2024-01-16T00:23:35;7.38;;;4.10;;
76098;SDS011;64828;49.956;8.636;2024-01-16T00:23:51;7.15;;;4.10;;
76098;SDS011;64828;49.956;8.636;2024-01-16T00:24:07;5.93;;;3.97;;
76098;SDS011;64828;49.956;8.636;2024-01-16T00:24:22;6.15;;;3.85;;
76098;SDS011;64828;49.956;8.636;2024-01-16T00:24:38;7.90;;;4.00;;
76098;SDS011;64828;49.956;8.636;2024-01-16T00:24:54;8.02;;;4.03;;
76098;SDS011;64828;49.956;8.636;2024-01-16T00:25:10;7.78;;;4.00;;
76098;SDS011;64828;49.956;8.636;2024-01-16T00:25:25;6.85;;;3.97;;
76098;SDS011;64828;49.956;8.636;2024-01-16T00:25:41;5.93;;;3.92;;
76098;SDS011;64828;49.956;8.636;2024-01-16T00:25:56;7.90;;;4.30;;
76098;SDS011;64828;49.956;8.636;2024-01-16T00:26:22;9.40;;;4.90;;
76098;SDS011;64828;49.956;8.636;2024-01-16T00:26:37;7.18;;;4.15;;
76098;SDS011;64828;49.956;8.636;2024-01-16T00:26:53;6.05;;;3.95;;
76098;SDS011;64828;49.956;8.636;2024-01-16T00:27:08;6.27;;;3.97;;
76098;SDS011;64828;49.956;8.636;2024-01-16T00:27:24;6.82;;;4.07;;
76098;SDS011;64828;49.956;8.636;2024-01-16T00:27:40;6.90;;;4.30;;
76098;SDS011;64828;49.956;8.636;2024-01-16T00:27:57;6.30;;;3.63;;
76098;SDS011;64828;49.956;8.636;2024-01-16T00:28:13;7.50;;;3.70;;
76098;SDS011;64828;49.956;8.636;2024-01-16T00:28:30;8.32;;;4.05;;
76098;SDS011;64828;49.956;8.636;2024-01-16T00:28:47;6.57;;;3.72;;
76098;SDS011;64828;49.956;8.636;2024-01-16T00:29:03;5.47;;;4.00;;
76098;SDS011;64828;49.956;8.636;2024-01-16T00:29:19;6.82;;;4.18;;
76098;SDS011;64828;49.956;8.636;2024-01-16T00:29:35;7.68;;;4.10;;
76098;SDS011;64828;49.956;8.636;2024-01-16T00:29:50;7.68;;;3.95;;
76098;SDS011;64828;49.956;8.636;2024-01-16T00:30:06;7.30;;;3.90;;
76098;SDS011;64828;49.956;8.636;2024-01-16T00:30:22;7.72;;;4.22;;
76098;SDS011;64828;49.956;8.636;2024-01-16T00:30:38;8.13;;;4.17;;
76098;SDS011;64828;49.956;8.636;2024-01-16T00:30:53;7.15;;;4.05;;
76098;SDS011;64828;49.956;8.636;2024-01-16T00:31:09;6.10;;;3.80;;
76098;SDS011;64828;49.956;8.636;2024-01-16T00:31:24;6.45;;;3.85;;
76098;SDS011;64828;49.956;8.636;2024-01-16T00:31:40;6.85;;;3.90;;
76098;SDS011;64828;49.956;8.636;2024-01-16T00:31:56;6.60;;;3.90;;
76098;SDS011;64828;49.956;8.636;2024-01-16T00:32:11;6.82;;;3.95;;
76098;SDS011;64828;49.956;8.636;2024-01-16T00:32:30;7.30;;;3.88;;
76098;SDS011;64828;49.956;8.636;2024-01-16T00:32:46;8.00;;;3.97;;
76098;SDS011;64828;49.956;8.636;2024-01-16T00:33:02;7.03;;;3.90;;
76098;SDS011;64828;49.956;8.636;2024-01-16T00:33:18;6.72;;;3.63;;
76098;SDS011;64828;49.956;8.636;2024-01-16T00:33:33;6.70;;;3.80;;
76098;SDS011;64828;49.956;8.636;2024-01-16T00:33:49;6.77;;;4.20;;
76098;SDS011;64828;49.956;8.636;2024-01-16T00:34:04;8.32;;;4.20;;
76098;SDS011;64828;49.956;8.636;2024-01-16T00:34:20;8.45;;;4.15;;
76098;SDS011;64828;49.956;8.636;2024-01-16T00:34:35;6.63;;;4.10;;
76098;SDS011;64828;49.956;8.636;2024-01-16T00:34:51;5.80;;;4.00;;
76098;SDS011;64828;49.956;8.636;2024-01-16T00:35:07;6.27;;;4.20;;
76098;SDS011;64828;49.956;8.636;2024-01-16T00:35:23;6.93;;;4.45;;
76098;SDS011;64828;49.956;8.636;2024-01-16T00:35:39;7.15;;;4.47;;
76098;SDS011;64828;49.956;8.636;2024-01-16T00:35:54;6.57;;;4.23;;
76098;SDS011;64828;49.956;8.636;2024-01-16T00:36:10;7.20;;;4.38;;
76098;SDS011;64828;49.956;8.636;2024-01-16T00:36:26;6.33;;;4.10;;
76098;SDS011;64828;49.956;8.636;2024-01-16T00:36:41;6.43;;;4.05;;
76098;SDS011;64828;49.956;8.636;2024-01-16T00:36:57;8.27;;;4.47;;
76098;SDS011;64828;49.956;8.636;2024-01-16T00:37:12;7.30;;;4.27;;
76098;SDS011;64828;49.956;8.636;2024-01-16T00:37:28;7.22;;;4.43;;
76098;SDS011;64828;49.956;8.636;2024-01-16T00:37:44;8.17;;;4.23;;
76098;SDS011;64828;49.956;8.636;2024-01-16T00:38:00;9.27;;;4.25;;
76098;SDS011;64828;49.956;8.636;2024-01-16T00:38:15;8.35;;;4.40;;
76098;SDS011;64828;49.956;8.636;2024-01-16T00:38:34;8.85;;;4.20;;
76098;SDS011;64828;49.956;8.636;2024-01-16T00:38:50;9.18;;;4.07;;
76098;SDS011;64828;49.956;8.636;2024-01-16T00:39:06;8.73;;;3.93;;
76098;SDS011;64828;49.956;8.636;2024-01-16T00:39:22;7.32;;;3.97;;
76098;SDS011;64828;49.956;8.636;2024-01-16T00:39:38;8.02;;;4.15;;
76098;SDS011;64828;49.956;8.636;2024-01-16T00:39:54;7.37;;;4.07;;
76098;SDS011;64828;49.956;8.636;2024-01-16T00:40:09;7.90;;;4.00;;
76098;SDS011;64828;49.956;8.636;2024-01-16T00:40:25;7.32;;;3.95;;
76098;SDS011;64828;49.956;8.636;2024-01-16T00:40:41;6.05;;;3.90;;
76098;SDS011;64828;49.956;8.636;2024-01-16T00:40:57;7.43;;;4.03;;
76098;SDS011;64828;49.956;8.636;2024-01-16T00:41:12;9.25;;;3.92;;
76098;SDS011;64828;49.956;8.636;2024-01-16T00:41:31;9.40;;;4.00;;
76098;SDS011;64828;49.956;8.636;2024-01-16T00:41:46;8.17;;;4.00;;
76098;SDS011;64828;49.956;8.636;2024-01-16T00:42:02;7.05;;;3.88;;
76098;SDS011;64828;49.956;8.636;2024-01-16T00:42:18;4.95;;;3.67;;
76098;SDS011;64828;49.956;8.636;2024-01-16T00:42:34;5.67;;;4.00;;
76098;SDS011;64828;49.956;8.636;2024-01-16T00:42:50;6.47;;;4.15;;
76098;SDS011;64828;49.956;8.636;2024-01-16T00:43:06;7.15;;;4.00;;
76098;SDS011;64828;49.956;8.636;2024-01-16T00:43:22;6.60;;;3.97;;
76098;SDS011;64828;49.956;8.636;2024-01-16T00:43:37;6.07;;;3.83;;
76098;SDS011;64828;49.956;8.636;2024-01-16T00:43:53;6.05;;;3.97;;
76098;SDS011;64828;49.956;8.636;2024-01-16T00:44:08;6.17;;;4.33;;
76098;SDS011;64828;49.956;8.636;2024-01-16T00:44:25;5.90;;;4.43;;
76098;SDS011;64828;49.956;8.636;2024-01-16T00:44:41;6.28;;;4.47;;
76098;SDS011;64828;49.956;8.636;2024-01-16T00:44:57;6.43;;;4.27;;
76098;SDS011;64828;49.956;8.636;2024-01-16T00:45:13;5.68;;;3.70;;
76098;SDS011;64828;49.956;8.636;2024-01-16T00:45:29;6.90;;;3.90;;
76098;SDS011;64828;49.956;8.636;2024-01-16T00:45:45;8.75;;;4.03;;
76098;SDS011;64828;49.956;8.636;2024-01-16T00:46:01;9.75;;;4.10;;
76098;SDS011;64828;49.956;8.636;2024-01-16T00:46:17;8.85;;;4.22;;
76098;SDS011;64828;49.956;8.636;2024-01-16T00:46:32;9.00;;;4.30;;
76098;SDS011;64828;49.956;8.636;2024-01-16T00:46:48;8.43;;;4.28;;
76098;SDS011;64828;49.956;8.636;2024-01-16T00:47:03;5.87;;;3.97;;
76098;SDS011;64828;49.956;8.636;2024-01-16T00:47:20;6.03;;;4.18;;
76098;SDS011;64828;49.956;8.636;2024-01-16T00:47:36;7.03;;;4.30;;
76098;SDS011;64828;49.956;8.636;2024-01-16T00:47:51;7.97;;;4.00;;
76098;SDS011;64828;49.956;8.636;2024-01-16T00:48:07;9.93;;;3.92;;
76098;SDS011;64828;49.956;8.636;2024-01-16T00:48:25;9.73;;;4.32;;
76098;SDS011;64828;49.956;8.636;2024-01-16T00:48:40;8.73;;;4.30;;
76098;SDS011;64828;49.956;8.636;2024-01-16T00:48:56;8.57;;;4.00;;
76098;SDS011;64828;49.956;8.636;2024-01-16T00:49:12;8.05;;;3.90;;
76098;SDS011;64828;49.956;8.636;2024-01-16T00:49:27;7.33;;;4.00;;
76098;SDS011;64828;49.956;8.636;2024-01-16T00:49:43;8.45;;;3.83;;
76098;SDS011;64828;49.956;8.636;2024-01-16T00:49:59;7.97;;;3.80;;
76098;SDS011;64828;49.956;8.636;2024-01-16T00:50:16;6.30;;;4.00;;
76098;SDS011;64828;49.956;8.636;2024-01-16T00:50:31;6.43;;;3.63;;
76098;SDS011;64828;49.956;8.636;2024-01-16T00:50:47;6.30;;;3.60;;
76098;SDS011;64828;49.956;8.636;2024-01-16T00:51:04;7.20;;;3.90;;
76098;SDS011;64828;49.956;8.636;2024-01-16T00:51:19;6.00;;;3.57;;
76098;SDS011;64828;49.956;8.636;2024-01-16T00:51:35;6.43;;;3.83;;
76098;SDS011;64828;49.956;8.636;2024-01-16T00:51:51;8.43;;;4.30;;
76098;SDS011;64828;49.956;8.636;2024-01-16T00:52:06;7.63;;;4.00;;
76098;SDS011;64828;49.956;8.636;2024-01-16T00:52:22;7.20;;;3.85;;
76098;SDS011;64828;49.956;8.636;2024-01-16T00:52:37;7.43;;;3.67;;
76098;SDS011;64828;49.956;8.636;2024-01-16T00:52:53;6.25;;;3.88;;
76098;SDS011;64828;49.956;8.636;2024-01-16T00:53:09;6.25;;;3.78;;
76098;SDS011;64828;49.956;8.636;2024-01-16T00:53:25;7.23;;;3.63;;
76098;SDS011;64828;49.956;8.636;2024-01-16T00:53:42;8.25;;;4.10;;
76098;SDS011;64828;49.956;8.636;2024-01-16T00:53:58;8.55;;;4.20;;
76098;SDS011;64828;49.956;8.636;2024-01-16T00:54:14;7.88;;;4.03;;
76098;SDS011;64828;49.956;8.636;2024-01-16T00:54:30;6.72;;;3.80;;
76098;SDS011;64828;49.956;8.636;2024-01-16T00:54:45;7.37;;;3.83;;
76098;SDS011;64828;49.956;8.636;2024-01-16T00:55:01;7.38;;;4.10;;
76098;SDS011;64828;49.956;8.636;2024-01-16T00:55:17;7.07;;;3.90;;
76098;SDS011;64828;49.956;8.636;2024-01-16T00:55:33;7.20;;;4.00;;
76098;SDS011;64828;49.956;8.636;2024-01-16T00:55:48;7.33;;;4.00;;
76098;SDS011;64828;49.956;8.636;2024-01-16T00:56:05;5.90;;;3.78;;
76098;SDS011;64828;49.956;8.636;2024-01-16T00:56:20;6.30;;;4.13;;
76098;SDS011;64828;49.956;8.636;2024-01-16T00:56:36;7.25;;;4.22;;
76098;SDS011;64828;49.956;8.636;2024-01-16T00:56:52;6.97;;;4.03;;
76098;SDS011;64828;49.956;8.636;2024-01-16T00:57:10;7.10;;;4.00;;
76098;SDS011;64828;49.956;8.636;2024-01-16T00:57:26;6.63;;;3.97;;
76098;SDS011;64828;49.956;8.636;2024-01-16T00:57:41;6.07;;;3.73;;
76098;SDS011;64828;49.956;8.636;2024-01-16T00:57:57;5.73;;;3.40;;
76098;SDS011;64828;49.956;8.636;2024-01-16T00:58:13;6.18;;;3.88;;
76098;SDS011;64828;49.956;8.636;2024-01-16T00:58:28;6.50;;;3.90;;
76098;SDS011;64828;49.956;8.636;2024-01-16T00:58:44;6.78;;;3.65;;
76098;SDS011;64828;49.956;8.636;2024-01-16T00:58:59;6.57;;;3.87;;
76098;SDS011;64828;49.956;8.636;2024-01-16T00:59:15;5.35;;;3.50;;
76098;SDS011;64828;49.956;8.636;2024-01-16T00:59:31;5.47;;;3.17;;
76098;SDS011;64828;49.956;8.636;2024-01-16T00:59:46;7.07;;;3.87;;
76098;SDS011;64828;49.956;8.636;2024-01-16T01:00:02;6.55;;;4.00;;
76098;SDS011;64828;49.956;8.636;2024-01-16T01:00:18;6.28;;;3.85;;
76098;SDS011;64828;49.956;8.636;2024-01-16T01:00:34;6.20;;;3.77;;
76098;SDS011;64828;49.956;8.636;2024-01-16T01:00:52;6.80;;;4.18;;
76098;SDS011;64828;49.956;8.636;2024-01-16T01:01:07;7.13;;;4.43;;
76098;SDS011;64828;49.956;8.636;2024-01-16T01:01:23;6.40;;;4.00;;
76098;SDS011;64828;49.956;8.636;2024-01-16T01:01:39;6.35;;;3.67;;
76098;SDS011;64828;49.956;8.636;2024-01-16T01:01:55;6.40;;;3.55;;
76098;SDS011;64828;49.956;8.636;2024-01-16T01:02:10;6.57;;;3.80;;
76098;SDS011;64828;49.956;8.636;2024-01-16T01:02:26;6.80;;;4.10;;
76098;SDS011;64828;49.956;8.636;2024-01-16T01:02:42;7.00;;;3.97;;
76098;SDS011;64828;49.956;8.636;2024-01-16T01:02:59;9.23;;;4.10;;
76098;SDS011;64828;49.956;8.636;2024-01-16T01:03:14;7.90;;;4.13;;
76098;SDS011;64828;49.956;8.636;2024-01-16T01:03:30;6.53;;;4.07;;
76098;SDS011;64828;49.956;8.636;2024-01-16T01:03:46;7.03;;;4.10;;
76098;SDS011;64828;49.956;8.636;2024-01-16T01:04:02;7.60;;;4.07;;
76098;SDS011;64828;49.956;8.636;2024-01-16T01:04:17;6.47;;;3.60;;
76098;SDS011;64828;49.956;8.636;2024-01-16T01:04:33;5.72;;;3.60;;
76098;SDS011;64828;49.956;8.636;2024-01-16T01:04:49;6.38;;;3.83;;
76098;SDS011;64828;49.956;8.636;2024-01-16T01:05:04;6.23;;;3.97;;
76098;SDS011;64828;49.956;8.636;2024-01-16T01:05:22;6.38;;;3.92;;
76098;SDS011;64828;49.956;8.636;2024-01-16T01:05:43;6.32;;;4.10;;
76098;SDS011;64828;49.956;8.636;2024-01-16T01:05:59;8.63;;;4.10;;
76098;SDS011;64828;49.956;8.636;2024-01-16T01:06:15;9.85;;;3.92;;
76098;SDS011;64828;49.956;8.636;2024-01-16T01:06:31;7.15;;;3.72;;
76098;SDS011;64828;49.956;8.636;2024-01-16T01:06:46;6.05;;;3.80;;
76098;SDS011;64828;49.956;8.636;2024-01-16T01:07:02;7.00;;;4.03;;
76098;SDS011;64828;49.956;8.636;2024-01-16T01:07:18;7.72;;;4.13;;
76098;SDS011;64828;49.956;8.636;2024-01-16T01:07:33;7.50;;;4.20;;
76098;SDS011;64828;49.956;8.636;2024-01-16T01:07:49;6.80;;;4.10;;
76098;SDS011;64828;49.956;8.636;2024-01-16T01:08:05;7.07;;;3.97;;
76098;SDS011;64828;49.956;8.636;2024-01-16T01:08:21;7.00;;;4.00;;
76098;SDS011;64828;49.956;8.636;2024-01-16T01:08:37;6.07;;;3.85;;
76098;SDS011;64828;49.956;8.636;2024-01-16T01:08:52;6.85;;;4.07;;
76098;SDS011;64828;49.956;8.636;2024-01-16T01:09:08;7.47;;;4.33;;
76098;SDS011;64828;49.956;8.636;2024-01-16T01:09:26;8.45;;;4.30;;
76098;SDS011;64828;49.956;8.636;2024-01-16T01:09:42;8.63;;;4.13;;
76098;SDS011;64828;49.956;8.636;2024-01-16T01:09:57;6.45;;;3.95;;
76098;SDS011;64828;49.956;8.636;2024-01-16T01:10:13;5.70;;;3.87;;
76098;SDS011;64828;49.956;8.636;2024-01-16T01:10:29;6.18;;;3.70;;
76098;SDS011;64828;49.956;8.636;2024-01-16T01:10:44;6.07;;;3.45;;
76098;SDS011;64828;49.956;8.636;2024-01-16T01:11:00;7.17;;;3.97;;
76098;SDS011;64828;49.956;8.636;2024-01-16T01:11:16;7.97;;;4.03;;
76098;SDS011;64828;49.956;8.636;2024-01-16T01:11:31;8.38;;;4.05;;
76098;SDS011;64828;49.956;8.636;2024-01-16T01:11:47;7.00;;;4.00;;
76098;SDS011;64828;49.956;8.636;2024-01-16T01:12:03;6.22;;;3.80;;
76098;SDS011;64828;49.956;8.636;2024-01-16T01:12:19;7.78;;;4.18;;
76098;SDS011;64828;49.956;8.636;2024-01-16T01:12:34;6.80;;;4.00;;
76098;SDS011;64828;49.956;8.636;2024-01-16T01:12:50;5.40;;;3.50;;
76098;SDS011;64828;49.956;8.636;2024-01-16T01:13:08;6.10;;;3.80;;
76098;SDS011;64828;49.956;8.636;2024-01-16T01:13:23;6.97;;;4.18;;
76098;SDS011;64828;49.956;8.636;2024-01-16T01:13:40;6.43;;;4.07;;
76098;SDS011;64828;49.956;8.636;2024-01-16T01:13:55;5.95;;;4.00;;
76098;SDS011;64828;49.956;8.636;2024-01-16T01:14:11;7.00;;;4.10;;
76098;SDS011;64828;49.956;8.636;2024-01-16T01:14:26;6.63;;;4.15;;
76098;SDS011;64828;49.956;8.636;2024-01-16T01:14:44;6.10;;;3.97;;
76098;SDS011;64828;49.956;8.636;2024-01-16T01:14:59;7.40;;;4.00;;
76098;SDS011;64828;49.956;8.636;2024-01-16T01:15:16;7.90;;;4.28;;
76098;SDS011;64828;49.956;8.636;2024-01-16T01:15:32;8.23;;;4.23;;
76098;SDS011;64828;49.956;8.636;2024-01-16T01:15:47;7.35;;;4.03;;
76098;SDS011;64828;49.956;8.636;2024-01-16T01:16:03;6.82;;;4.25;;
76098;SDS011;64828;49.956;8.636;2024-01-16T01:16:19;7.80;;;4.30;;
76098;SDS011;64828;49.956;8.636;2024-01-16T01:16:35;8.05;;;3.90;;
76098;SDS011;64828;49.956;8.636;2024-01-16T01:16:50;7.55;;;3.70;;
76098;SDS011;64828;49.956;8.636;2024-01-16T01:17:06;7.90;;;3.97;;
76098;SDS011;64828;49.956;8.636;2024-01-16T01:17:21;7.93;;;4.10;;
76098;SDS011;64828;49.956;8.636;2024-01-16T01:17:37;7.45;;;3.90;;
76098;SDS011;64828;49.956;8.636;2024-01-16T01:17:53;6.53;;;3.87;;
76098;SDS011;64828;49.956;8.636;2024-01-16T01:18:09;8.30;;;4.00;;
76098;SDS011;64828;49.956;8.636;2024-01-16T01:18:25;7.75;;;4.05;;
76098;SDS011;64828;49.956;8.636;2024-01-16T01:18:40;7.38;;;4.07;;
76098;SDS011;64828;49.956;8.636;2024-01-16T01:18:56;8.37;;;4.10;;
76098;SDS011;64828;49.956;8.636;2024-01-16T01:19:11;8.50;;;4.10;;
76098;SDS011;64828;49.956;8.636;2024-01-16T01:19:27;7.55;;;4.18;;
76098;SDS011;64828;49.956;8.636;2024-01-16T01:19:43;7.10;;;4.20;;
76098;SDS011;64828;49.956;8.636;2024-01-16T01:19:59;7.50;;;4.20;;
76098;SDS011;64828;49.956;8.636;2024-01-16T01:20:15;7.95;;;4.20;;
76098;SDS011;64828;49.956;8.636;2024-01-16T01:20:32;8.88;;;4.28;;
76098;SDS011;64828;49.956;8.636;2024-01-16T01:20:48;7.57;;;4.17;;
76098;SDS011;64828;49.956;8.636;2024-01-16T01:21:03;6.45;;;4.00;;
76098;SDS011;64828;49.956;8.636;2024-01-16T01:21:19;6.32;;;3.90;;
76098;SDS011;64828;49.956;8.636;2024-01-16T01:21:35;6.27;;;4.00;;
76098;SDS011;64828;49.956;8.636;2024-01-16T01:21:51;6.68;;;4.45;;
76098;SDS011;64828;49.956;8.636;2024-01-16T01:22:06;6.78;;;4.28;;
76098;SDS011;64828;49.956;8.636;2024-01-16T01:22:22;8.73;;;3.75;;
76098;SDS011;64828;49.956;8.636;2024-01-16T01:22:37;9.03;;;3.73;;
76098;SDS011;64828;49.956;8.636;2024-01-16T01:22:53;8.07;;;4.32;;
76098;SDS011;64828;49.956;8.636;2024-01-16T01:23:09;9.87;;;4.60;;
76098;SDS011;64828;49.956;8.636;2024-01-16T01:23:25;9.93;;;4.50;;
76098;SDS011;64828;49.956;8.636;2024-01-16T01:23:40;6.32;;;3.97;;
76098;SDS011;64828;49.956;8.636;2024-01-16T01:23:56;6.23;;;4.10;;
76098;SDS011;64828;49.956;8.636;2024-01-16T01:24:11;7.35;;;4.20;;
76098;SDS011;64828;49.956;8.636;2024-01-16T01:24:27;7.10;;;4.13;;
76098;SDS011;64828;49.956;8.636;2024-01-16T01:24:42;8.83;;;4.40;;
76098;SDS011;64828;49.956;8.636;2024-01-16T01:24:58;9.05;;;4.57;;
76098;SDS011;64828;49.956;8.636;2024-01-16T01:25:14;8.97;;;4.60;;
76098;SDS011;64828;49.956;8.636;2024-01-16T01:25:29;10.00;;;4.60;;
76098;SDS011;64828;49.956;8.636;2024-01-16T01:25:45;9.38;;;4.60;;
76098;SDS011;64828;49.956;8.636;2024-01-16T01:26:01;8.23;;;4.53;;
76098;SDS011;64828;49.956;8.636;2024-01-16T01:26:16;6.63;;;4.55;;
76098;SDS011;64828;49.956;8.636;2024-01-16T01:26:35;6.25;;;4.47;;
76098;SDS011;64828;49.956;8.636;2024-01-16T01:26:50;6.53;;;4.50;;
76098;SDS011;64828;49.956;8.636;2024-01-16T01:27:06;7.82;;;4.80;;
76098;SDS011;64828;49.956;8.636;2024-01-16T01:27:22;7.73;;;4.70;;
76098;SDS011;64828;49.956;8.636;2024-01-16T01:27:38;7.78;;;4.53;;
76098;SDS011;64828;49.956;8.636;2024-01-16T01:27:54;8.02;;;4.40;;
76098;SDS011;64828;49.956;8.636;2024-01-16T01:28:10;7.53;;;4.60;;
76098;SDS011;64828;49.956;8.636;2024-01-16T01:28:26;9.50;;;4.70;;
76098;SDS011;64828;49.956;8.636;2024-01-16T01:28:41;9.90;;;4.70;;
76098;SDS011;64828;49.956;8.636;2024-01-16T01:28:57;8.05;;;4.60;;
76098;SDS011;64828;49.956;8.636;2024-01-16T01:29:13;8.10;;;4.40;;
76098;SDS011;64828;49.956;8.636;2024-01-16T01:29:28;9.48;;;4.55;;
76098;SDS011;64828;49.956;8.636;2024-01-16T01:29:44;9.57;;;4.70;;
76098;SDS011;64828;49.956;8.636;2024-01-16T01:29:59;9.15;;;4.90;;
76098;SDS011;64828;49.956;8.636;2024-01-16T01:30:15;8.30;;;4.85;;
76098;SDS011;64828;49.956;8.636;2024-01-16T01:30:31;7.37;;;4.60;;
76098;SDS011;64828;49.956;8.636;2024-01-16T01:30:47;8.90;;;4.68;;
76098;SDS011;64828;49.956;8.636;2024-01-16T01:31:03;9.80;;;4.77;;
76098;SDS011;64828;49.956;8.636;2024-01-16T01:31:18;8.77;;;5.10;;
76098;SDS011;64828;49.956;8.636;2024-01-16T01:31:34;8.15;;;5.18;;
76098;SDS011;64828;49.956;8.636;2024-01-16T01:31:50;7.95;;;4.93;;
76098;SDS011;64828;49.956;8.636;2024-01-16T01:32:06;8.38;;;4.85;;
76098;SDS011;64828;49.956;8.636;2024-01-16T01:32:21;7.60;;;4.70;;
76098;SDS011;64828;49.956;8.636;2024-01-16T01:32:37;5.68;;;4.55;;
76098;SDS011;64828;49.956;8.636;2024-01-16T01:32:53;6.93;;;4.90;;
76098;SDS011;64828;49.956;8.636;2024-01-16T01:33:09;8.88;;;5.13;;
76098;SDS011;64828;49.956;8.636;2024-01-16T01:33:24;7.93;;;4.80;;
76098;SDS011;64828;49.956;8.636;2024-01-16T01:33:40;7.95;;;5.07;;
76098;SDS011;64828;49.956;8.636;2024-01-16T01:33:56;7.50;;;4.93;;
76098;SDS011;64828;49.956;8.636;2024-01-16T01:34:11;7.03;;;4.65;;
76098;SDS011;64828;49.956;8.636;2024-01-16T01:34:27;7.65;;;4.78;;
76098;SDS011;64828;49.956;8.636;2024-01-16T01:34:42;7.00;;;4.50;;
76098;SDS011;64828;49.956;8.636;2024-01-16T01:34:59;6.97;;;4.60;;
76098;SDS011;64828;49.956;8.636;2024-01-16T01:35:16;8.20;;;4.88;;
76098;SDS011;64828;49.956;8.636;2024-01-16T01:35:34;8.77;;;5.00;;
76098;SDS011;64828;49.956;8.636;2024-01-16T01:35:50;9.18;;;4.93;;
76098;SDS011;64828;49.956;8.636;2024-01-16T01:36:05;10.37;;;4.90;;
76098;SDS011;64828;49.956;8.636;2024-01-16T01:36:21;9.57;;;4.85;;